Green Valley, Arizona
Current Conditions -  °F | °C
As of 8:53 PM on Thursday 30 Oct 2014 (Local Time) from KTUS Reporting Station
Clear Clear  
Wind Chill: 78°   Ceiling: Unl
Heat Index: 78°   Visibility: 10mi
Dew Point: 38°   Wind: 3mph
Humidity: 24%   Direction: 260°W
Pressure: 30.03"   Gusts: NA
Location:  31.91°N, 110.98°W
Report Text: KTUS 310353Z 26003KT 10SM CLR 26/03 A3003 RMK AO2 SLP129 T02560033
Loading
Personal Weather Stations






























Interactive Weather Map
Tropical Storm Tracking
New forecast layout! Learn more

10-Day Weather Forecast

Advertisements
Track Severe Weather on mobile